Aeroporto :
LOGIN :

Iscrizione | Disclaimer

   EN    FR    IT 

 










Sommario :    VFR   VFR Marginale   IFR   IFR Intensivo   IFR Molto Intensivo
Visibilità : 
Base nubi : 
>= 8 km
>= 3000ft
5 / 8 km
1000 / 3000 ft
1500m / 5 km
500 / 1000 ft
800 / 1500m
200 / 500 ft
< 800m
< 200 ft
Simboli :   Temporali  Nebbia  Neve Forte  Precipitazioni Forti  Vento > 20 kt
SIGMETs :   Varie  Temporali  Ghiacco  Turbolenza  Onda orograficha  Ceneri Vulcaniche






- Altitudine del aeroporto : 1017 ft


LFSL - Brive Souillac

ULTIMO METAR :
  • 111930Z AUTO 29004KT 260V320 9999 BKN007 BKN013 06/06 Q1014 BECMG BKN030

METARs OBSOLETI :
  • 111900Z AUTO 30008KT 9999 FEW013 SCT019 BKN048 07/06 Q1013 NOSIG
  • 111830Z AUTO 31009KT 9999 SCT007 07/06 Q1013 NOSIG
  • 111800Z AUTO 31010KT 9999 OVC004 08/08 Q1012 BECMG SCT013 BKN030
  • 111730Z AUTO 31010KT 230V330 9999 BKN005 OVC009 08/07 Q1011 BECMG SCT013 BKN030
  • 111700Z AUTO VRB01KT 6000 SCT003 BKN011 BKN016 07/07 Q1011 TEMPO 3000 RADZ BECMG BKN008

TAF AMD TAF LFSL
Valido dal 11 a 18 ore il 12 a 03 ore UTC


111804Z 1118/1203 28006KT 8000 BKN004
BECMG 1118/1120 BKN030
BECMG 1122/1124 VRB03KT 3000 BR SCT001
TEMPO 1200/1203 1200 BCFG BKN001



MetMap, La meteo Aeronautica in un colpo d'occhio ! - Copyright ORBIFLY Dicembre 2007 - Disclaimer

ORBIFLY MET'MAP TEAM :

Programmazione e sviluppo : Alexandra Zaïnal
Concezione e sviluppo : Baudouin d'Aumeries
Co-Programmazione e sviluppo : Marc-Olivier Méhu
Supporto tecnico e logistico : Manuel Goepfert
Aiuto per la traduzione : Arnaldo La Scala

Contatto : metmap@orbifly.com




FONTI E CREDITI :

   NOAA